Time;durP1;ratioP1;P1;durP2;ratioP2;P2;SDS_P1;SDS_P2;PMS_P1;PMS_P2;Temp;Humidity;BMP_temperature;BMP_pressure;BME280_temperature;BME280_humidity;BME280_pressure;Samples;Min_cycle;Max_cycle;Signal;HPM_P1;HPM_P2
2021/08/19 03:17:24;;;;;;;;;;;;;;;16.75;84.65;99544.72;5354570;23;19945;-79
2021/08/19 03:19:49;;;;;;;;;;;;;;;16.84;83.30;99541.38;5005257;28;19926;-80
2021/08/19 03:22:15;;;;;;;;;;;;;;;16.85;83.09;99548.50;5004501;28;19926;-79
2021/08/19 03:24:41;;;;;;;;;;;;;;;16.82;82.79;99542.47;5005868;28;19956;-80
2021/08/19 03:27:06;;;;;;;;;;;;;;;16.56;82.51;99537.19;5005078;28;20368;-79
2021/08/19 03:29:32;;;;;;;;;;;;;;;16.70;83.73;99538.84;5005328;28;19921;-80
2021/08/19 03:31:57;;;;;;;;;;;;;;;16.73;85.16;99538.63;5003263;28;19960;-80
2021/08/19 03:34:22;;;;;;;;;;;;;;;16.68;84.96;99543.47;5004355;28;19918;-79
2021/08/19 03:36:48;;;;;;;;;;;;;;;16.56;79.65;99547.00;5005181;28;19924;-80
2021/08/19 03:39:14;;;;;;;;;;;;;;;16.64;83.48;99544.66;5003810;28;19918;-79
2021/08/19 03:41:39;;;;;;;;;;;;;;;16.86;83.72;99539.50;5005720;28;19956;-80
2021/08/19 03:44:05;;;;;;;;;;;;;;;17.16;84.65;99535.50;5005130;28;19956;-81
2021/08/19 03:46:32;;;;;;;;;;;;;;;16.87;82.88;99546.53;5002254;28;19979;-80
2021/08/19 03:48:59;;;;;;;;;;;;;;;16.78;84.02;99543.66;5003728;28;19921;-79
2021/08/19 03:51:24;;;;;;;;;;;;;;;16.77;82.97;99545.47;5005325;28;19921;-79
2021/08/19 03:53:53;;;;;;;;;;;;;;;16.66;84.53;99542.72;5004981;28;19917;-80
2021/08/19 03:56:18;;;;;;;;;;;;;;;16.80;84.58;99545.25;5001511;28;20364;-80
2021/08/19 03:58:43;;;;;;;;;;;;;;;16.91;80.99;99552.53;5003936;28;19949;-80
2021/08/19 04:01:09;;;;;;;;;;;;;;;17.24;81.36;99548.34;5002102;28;20277;-79
2021/08/19 04:03:35;;;;;;;;;;;;;;;17.00;84.70;99545.66;5004841;28;19940;-81
2021/08/19 04:06:00;;;;;;;;;;;;;;;17.20;82.74;99542.38;5003656;28;19964;-81
2021/08/19 04:08:25;;;;;;;;;;;;;;;17.50;86.88;99553.56;5004570;28;19964;-80
2021/08/19 04:10:51;;;;;;;;;;;;;;;17.76;89.05;99551.59;5003862;28;19924;-82
2021/08/19 04:13:16;;;;;;;;;;;;;;;17.93;85.24;99551.19;5003459;28;19929;-79
2021/08/19 04:15:41;;;;;;;;;;;;;;;17.59;89.83;99551.03;5003208;28;19957;-80
2021/08/19 04:18:06;;;;;;;;;;;;;;;17.24;88.34;99551.84;5004447;28;19941;-80
2021/08/19 04:20:32;;;;;;;;;;;;;;;17.21;88.88;99548.56;5003876;28;19917;-81
2021/08/19 04:22:57;;;;;;;;;;;;;;;16.86;86.67;99550.22;5004559;28;19929;-80
2021/08/19 04:25:22;;;;;;;;;;;;;;;16.89;89.10;99549.09;5004067;28;20383;-80
2021/08/19 04:27:47;;;;;;;;;;;;;;;16.99;92.05;99544.81;5003120;28;19918;-79
2021/08/19 04:30:13;;;;;;;;;;;;;;;17.08;90.76;99545.09;5003480;28;19922;-80
2021/08/19 04:32:38;;;;;;;;;;;;;;;16.91;91.38;99546.31;5003116;28;19959;-82
2021/08/19 04:35:04;;;;;;;;;;;;;;;17.00;90.41;99551.00;5002682;28;19925;-82
2021/08/19 04:37:29;;;;;;;;;;;;;;;16.71;84.64;99551.28;5002281;28;19925;-81
2021/08/19 04:39:55;;;;;;;;;;;;;;;16.94;90.33;99546.09;5002800;28;19921;-81
2021/08/19 04:42:20;;;;;;;;;;;;;;;16.79;88.49;99543.53;5002814;28;19933;-81
2021/08/19 04:44:45;;;;;;;;;;;;;;;16.96;86.80;99545.03;5003164;28;20296;-81
2021/08/19 04:47:11;;;;;;;;;;;;;;;16.88;89.29;99548.25;5002600;28;19918;-81
2021/08/19 04:49:36;;;;;;;;;;;;;;;17.08;89.41;99548.63;5003976;28;19941;-81
2021/08/19 04:52:01;;;;;;;;;;;;;;;17.14;90.48;99542.81;5010797;28;20012;-82
2021/08/19 04:54:27;;;;;;;;;;;;;;;16.91;89.62;99546.31;5002690;28;20328;-81
2021/08/19 04:56:52;;;;;;;;;;;;;;;17.04;90.90;99547.13;5002374;28;19917;-81
2021/08/19 08:00:45;;;;;;;;;;;;;;;16.10;89.86;99604.59;5655762;23;19948;-81
2021/08/19 08:03:10;;;;;;;;;;;;;;;16.52;92.86;99600.72;5001567;28;19926;-81
2021/08/19 08:05:35;;;;;;;;;;;;;;;16.24;89.23;99606.28;5003636;28;19933;-80
2021/08/19 08:08:02;;;;;;;;;;;;;;;16.21;87.87;99601.16;5003849;28;20425;-80
2021/08/19 08:10:29;;;;;;;;;;;;;;;16.28;89.86;99602.44;5003908;28;19924;-81
2021/08/19 08:12:54;;;;;;;;;;;;;;;16.75;92.42;99606.25;5003439;28;19922;-81
2021/08/19 08:15:19;;;;;;;;;;;;;;;16.37;86.26;99608.97;5003083;28;19937;-81
2021/08/19 08:17:44;;;;;;;;;;;;;;;16.55;91.68;99604.16;5002605;28;19921;-81
2021/08/19 08:20:11;;;;;;;;;;;;;;;16.44;87.48;99603.09;5002656;28;20355;-81
2021/08/19 08:22:36;;;;;;;;;;;;;;;16.30;89.59;99604.03;5004581;28;19969;-81
2021/08/19 08:25:03;;;;;;;;;;;;;;;16.17;89.89;99605.88;5002987;28;19973;-81
2021/08/19 08:27:28;;;;;;;;;;;;;;;16.59;93.20;99611.84;5003387;28;19918;-81
2021/08/19 08:29:54;;;;;;;;;;;;;;;16.58;92.60;99609.25;5001753;28;19933;-81
2021/08/19 08:32:20;;;;;;;;;;;;;;;16.42;85.05;99610.38;5003129;28;19984;-81
2021/08/19 08:34:45;;;;;;;;;;;;;;;16.28;89.06;99611.31;5002782;28;20380;-81
2021/08/19 08:37:12;;;;;;;;;;;;;;;16.48;92.93;99615.28;5002882;28;19913;-82
2021/08/19 08:39:37;;;;;;;;;;;;;;;16.43;91.45;99621.91;5000138;28;19917;-82
2021/08/19 08:42:06;;;;;;;;;;;;;;;16.42;89.92;99620.19;5003860;28;19926;-80
2021/08/19 08:44:32;;;;;;;;;;;;;;;16.64;92.40;99620.41;5009536;28;19996;-81
2021/08/19 08:46:58;;;;;;;;;;;;;;;16.52;88.61;99624.78;5003371;28;19918;-81
2021/08/19 08:49:23;;;;;;;;;;;;;;;16.30;92.81;99635.28;5003705;28;19926;-81
2021/08/19 08:51:54;;;;;;;;;;;;;;;16.42;89.54;99626.41;5002452;28;19917;-82
2021/08/19 08:54:19;;;;;;;;;;;;;;;16.49;86.60;99622.31;5003779;28;19946;-80
2021/08/19 08:56:45;;;;;;;;;;;;;;;16.17;88.55;99635.25;5002444;28;20048;-82
2021/08/19 08:59:10;;;;;;;;;;;;;;;16.18;84.15;99634.31;4997980;28;19928;-82
2021/08/19 09:01:35;;;;;;;;;;;;;;;16.40;93.50;99628.34;5002635;28;19921;-81
2021/08/19 09:04:01;;;;;;;;;;;;;;;16.28;89.94;99634.53;5002252;28;20285;-81
2021/08/19 09:06:34;;;;;;;;;;;;;;;16.43;92.16;99637.94;5003462;28;19917;-82
2021/08/19 09:09:12;;;;;;;;;;;;;;;16.39;91.81;99636.47;5002489;28;19922;-82
2021/08/19 09:11:41;;;;;;;;;;;;;;;16.40;91.47;99633.69;5017464;28;19940;-81
2021/08/19 09:14:20;;;;;;;;;;;;;;;16.64;92.23;99630.22;5002931;28;19918;-80
2021/08/19 09:16:47;;;;;;;;;;;;;;;16.42;89.29;99631.75;4996318;28;19945;-80
2021/08/19 09:19:13;;;;;;;;;;;;;;;16.09;88.89;99638.44;5002430;28;20280;-82
2021/08/19 09:21:52;;;;;;;;;;;;;;;16.66;91.10;99639.88;5002306;28;19929;-81
2021/08/19 09:24:22;;;;;;;;;;;;;;;16.60;87.69;99639.47;5001440;28;19918;-81
2021/08/19 09:26:48;;;;;;;;;;;;;;;16.36;87.92;99634.84;5001446;28;20011;-81
2021/08/19 09:29:14;;;;;;;;;;;;;;;16.33;91.02;99637.72;4999905;28;19917;-81
2021/08/19 09:31:39;;;;;;;;;;;;;;;16.32;87.58;99636.88;5000299;28;20387;-82
2021/08/19 09:34:05;;;;;;;;;;;;;;;16.68;91.38;99626.38;5002419;28;19922;-82
2021/08/19 09:36:31;;;;;;;;;;;;;;;16.61;92.40;99627.78;5003712;28;19932;-81
2021/08/19 09:38:56;;;;;;;;;;;;;;;16.29;86.38;99633.56;5002334;28;19921;-82
2021/08/19 09:41:21;;;;;;;;;;;;;;;16.46;87.56;99640.41;5001425;28;19968;-81
2021/08/19 09:43:50;;;;;;;;;;;;;;;16.33;87.93;99627.03;5002763;28;19921;-81
2021/08/19 09:46:16;;;;;;;;;;;;;;;16.54;91.55;99632.69;5002029;28;19921;-81
2021/08/19 09:48:42;;;;;;;;;;;;;;;16.30;87.10;99636.13;4999319;28;20320;-82
2021/08/19 09:51:14;;;;;;;;;;;;;;;16.67;90.86;99624.66;5001240;28;19968;-81
2021/08/19 09:53:47;;;;;;;;;;;;;;;16.71;91.13;99627.03;5003237;28;19921;-80
2021/08/19 09:56:13;;;;;;;;;;;;;;;16.61;87.96;99625.09;5001550;28;19922;-81
2021/08/19 09:58:39;;;;;;;;;;;;;;;16.43;88.72;99622.75;5003050;28;19921;-82
2021/08/19 10:01:04;;;;;;;;;;;;;;;16.12;86.17;99626.72;5016472;28;19944;-79
2021/08/19 10:03:30;;;;;;;;;;;;;;;16.70;90.68;99619.09;4997117;28;20380;-80
2021/08/19 10:05:55;;;;;;;;;;;;;;;16.62;91.09;99618.78;5000859;28;19922;-82
2021/08/19 10:08:21;;;;;;;;;;;;;;;16.46;88.82;99619.88;5001092;28;19921;-81
2021/08/19 10:10:48;;;;;;;;;;;;;;;16.42;90.79;99615.72;5016878;28;19918;-80
2021/08/19 10:13:13;;;;;;;;;;;;;;;16.72;88.53;99617.19;5001194;28;19972;-80
2021/08/19 10:15:40;;;;;;;;;;;;;;;16.78;91.11;99616.72;5001004;28;19960;-82
2021/08/19 10:18:06;;;;;;;;;;;;;;;16.45;84.82;99620.84;5000553;28;20406;-81
2021/08/19 10:20:34;;;;;;;;;;;;;;;16.12;88.10;99621.38;5001162;28;20360;-81
2021/08/19 10:23:01;;;;;;;;;;;;;;;16.56;89.89;99611.19;5001340;28;20359;-80
2021/08/19 10:25:26;;;;;;;;;;;;;;;16.52;92.92;99610.56;4998820;28;19968;-81
2021/08/19 10:28:10;;;;;;;;;;;;;;;15.70;75.78;99610.78;5002648;28;19957;-81
2021/08/19 10:30:44;;;;;;;;;;;;;;;16.74;93.28;99599.22;5000935;28;20365;-81
2021/08/19 10:33:30;;;;;;;;;;;;;;;16.10;90.23;99605.44;4999419;28;19918;-80
2021/08/19 10:35:55;;;;;;;;;;;;;;;16.40;90.28;99604.28;5002010;28;19926;-80
2021/08/19 10:38:25;;;;;;;;;;;;;;;16.10;93.17;99608.09;5000694;28;19922;-80
2021/08/19 10:40:50;;;;;;;;;;;;;;;16.46;89.22;99595.81;5000938;28;19921;-81
2021/08/19 10:43:28;;;;;;;;;;;;;;;16.47;91.02;99597.53;5002337;28;19925;-81
2021/08/19 10:46:06;;;;;;;;;;;;;;;15.55;87.69;99604.63;5000420;28;19918;-80
2021/08/19 10:49:01;;;;;;;;;;;;;;;15.56;75.73;99602.84;5000624;28;19921;-81
2021/08/19 10:51:29;;;;;;;;;;;;;;;16.16;90.39;99599.66;5004345;28;20355;-81
2021/08/19 10:53:54;;;;;;;;;;;;;;;16.68;92.78;99599.63;5001894;28;19976;-79
2021/08/19 10:56:38;;;;;;;;;;;;;;;16.52;84.35;99605.22;4996559;28;19949;-81
2021/08/19 10:59:22;;;;;;;;;;;;;;;15.82;70.93;99597.59;5002198;28;19917;-81
2021/08/19 11:01:50;;;;;;;;;;;;;;;16.68;89.45;99605.00;5000523;28;20328;-80
2021/08/19 11:04:35;;;;;;;;;;;;;;;16.55;89.28;99593.47;5000470;28;19965;-81
2021/08/19 11:07:02;;;;;;;;;;;;;;;16.69;90.37;99596.84;5000970;28;19917;-82
2021/08/19 11:09:28;;;;;;;;;;;;;;;16.88;90.93;99593.75;4999660;28;20262;-80
2021/08/19 11:11:53;;;;;;;;;;;;;;;16.66;89.60;99588.22;5001098;28;19926;-81
2021/08/19 11:14:20;;;;;;;;;;;;;;;16.69;88.24;99588.84;5000836;28;20277;-80
2021/08/19 11:16:56;;;;;;;;;;;;;;;16.98;92.55;99590.41;4999535;28;19932;-81
2021/08/19 11:19:22;;;;;;;;;;;;;;;16.65;87.59;99595.34;5000864;28;19918;-82
2021/08/19 11:21:48;;;;;;;;;;;;;;;16.49;83.22;99595.59;5001865;28;19926;-81
2021/08/19 11:24:14;;;;;;;;;;;;;;;16.58;88.17;99593.22;5002160;28;19937;-81
2021/08/19 11:26:39;;;;;;;;;;;;;;;16.62;87.08;99598.25;5000401;28;20336;-82
2021/08/19 11:29:04;;;;;;;;;;;;;;;16.78;89.16;99586.47;5000175;28;20515;-81
2021/08/19 11:31:29;;;;;;;;;;;;;;;16.78;89.28;99594.47;5000687;28;19914;-81
2021/08/19 11:33:59;;;;;;;;;;;;;;;15.88;93.69;99598.03;5003491;28;19941;-81
2021/08/19 11:36:25;;;;;;;;;;;;;;;16.86;88.77;99589.47;5003761;28;19957;-82
2021/08/19 11:38:58;;;;;;;;;;;;;;;16.35;86.29;99593.03;5020350;28;20356;-81
2021/08/19 11:41:23;;;;;;;;;;;;;;;16.73;89.90;99586.78;5005273;28;19918;-82
2021/08/19 11:43:49;;;;;;;;;;;;;;;16.30;85.75;99590.66;5005037;28;20324;-81
2021/08/19 11:46:24;;;;;;;;;;;;;;;16.84;88.02;99580.66;5004491;28;19929;-81
2021/08/19 11:49:00;;;;;;;;;;;;;;;16.60;86.54;99592.16;5003780;28;19928;-80
2021/08/19 11:51:33;;;;;;;;;;;;;;;16.51;86.75;99585.66;5004069;28;19928;-81
2021/08/19 11:54:03;;;;;;;;;;;;;;;16.66;87.01;99577.50;5004599;28;19918;-82
2021/08/19 11:56:30;;;;;;;;;;;;;;;16.71;89.87;99588.72;5019464;28;19922;-81
2021/08/19 11:59:04;;;;;;;;;;;;;;;16.78;90.38;99583.78;5003909;28;19921;-81
2021/08/19 12:01:31;;;;;;;;;;;;;;;16.83;89.28;99586.97;5001731;28;19933;-81
2021/08/19 12:03:56;;;;;;;;;;;;;;;16.81;86.36;99579.06;5019024;28;19925;-82
2021/08/19 12:06:23;;;;;;;;;;;;;;;17.00;86.13;99580.44;5004230;28;19918;-81
2021/08/19 12:08:52;;;;;;;;;;;;;;;16.63;86.61;99575.06;5003775;28;20331;-81
2021/08/19 12:11:22;;;;;;;;;;;;;;;17.06;87.88;99583.53;5003548;28;20055;-81
2021/08/19 12:13:50;;;;;;;;;;;;;;;16.98;89.13;99579.72;5003334;28;19929;-81
2021/08/19 12:16:19;;;;;;;;;;;;;;;16.93;91.36;99577.38;5002044;28;19964;-82
2021/08/19 12:18:44;;;;;;;;;;;;;;;16.88;88.21;99575.03;5003409;28;19922;-82
2021/08/19 12:21:19;;;;;;;;;;;;;;;16.67;88.68;99588.09;5003635;28;19920;-82
2021/08/19 12:23:48;;;;;;;;;;;;;;;16.83;89.66;99581.63;5011163;28;20056;-80
2021/08/19 12:26:14;;;;;;;;;;;;;;;16.82;88.92;99582.63;5004404;28;19925;-81
2021/08/19 12:28:39;;;;;;;;;;;;;;;16.81;89.11;99576.38;5003950;28;20468;-81
2021/08/19 12:31:08;;;;;;;;;;;;;;;16.68;86.24;99586.28;4999550;28;20020;-80
2021/08/19 12:33:37;;;;;;;;;;;;;;;16.69;86.76;99579.97;5003014;28;19918;-80
2021/08/19 12:36:09;;;;;;;;;;;;;;;16.83;85.61;99577.16;5004031;28;19921;-80
2021/08/19 12:38:34;;;;;;;;;;;;;;;16.88;84.17;99582.16;5002679;28;19922;-81
2021/08/19 12:41:15;;;;;;;;;;;;;;;16.06;80.15;99577.19;5003995;28;19922;-81
2021/08/19 12:43:40;;;;;;;;;;;;;;;16.75;87.39;99576.81;5001984;28;21092;-80
2021/08/19 12:46:07;;;;;;;;;;;;;;;16.80;90.12;99572.03;5002934;28;19953;-80
2021/08/19 12:48:34;;;;;;;;;;;;;;;16.89;88.45;99568.69;5002731;28;19918;-82
2021/08/19 12:51:18;;;;;;;;;;;;;;;16.81;88.37;99568.34;4998285;28;19920;-82
2021/08/19 12:54:03;;;;;;;;;;;;;;;16.71;84.76;99573.53;5002371;28;19925;-81
2021/08/19 12:56:28;;;;;;;;;;;;;;;16.64;88.88;99566.03;5002841;28;20424;-81
2021/08/19 12:58:53;;;;;;;;;;;;;;;16.37;84.61;99568.84;5002550;28;20013;-81
2021/08/19 13:01:19;;;;;;;;;;;;;;;16.82;86.90;99563.88;4999086;28;19944;-81
2021/08/19 13:03:44;;;;;;;;;;;;;;;16.82;87.26;99564.72;5002151;28;19927;-81
2021/08/19 13:06:09;;;;;;;;;;;;;;;16.89;91.15;99557.97;4997576;28;19961;-81
2021/08/19 13:08:34;;;;;;;;;;;;;;;16.69;85.19;99569.25;5002086;28;19926;-81
2021/08/19 13:11:00;;;;;;;;;;;;;;;16.79;84.97;99570.31;5000178;28;19925;-82
2021/08/19 13:13:26;;;;;;;;;;;;;;;16.56;86.86;99571.09;5003640;28;19922;-82
2021/08/19 13:15:51;;;;;;;;;;;;;;;16.73;88.84;99565.38;4999848;28;19918;-80
2021/08/19 13:18:16;;;;;;;;;;;;;;;16.88;87.96;99556.28;5002052;28;19940;-82
2021/08/19 13:20:42;;;;;;;;;;;;;;;16.80;88.08;99552.41;5002532;28;20043;-81
2021/08/19 13:23:07;;;;;;;;;;;;;;;16.91;88.62;99557.03;5002061;28;19919;-81
2021/08/19 13:25:32;;;;;;;;;;;;;;;16.75;86.77;99555.41;5000928;28;19944;-80
2021/08/19 13:27:58;;;;;;;;;;;;;;;16.40;83.32;99553.47;5001994;28;19918;-81
2021/08/19 13:30:23;;;;;;;;;;;;;;;16.79;86.36;99548.91;5001014;28;19922;-81
2021/08/19 13:32:48;;;;;;;;;;;;;;;16.84;87.44;99543.22;5003177;28;20310;-81
2021/08/19 13:35:14;;;;;;;;;;;;;;;17.15;91.33;99536.50;4997286;28;20057;-81
2021/08/19 13:37:40;;;;;;;;;;;;;;;16.77;89.78;99534.78;5003097;28;20391;-81
2021/08/19 13:40:06;;;;;;;;;;;;;;;16.98;86.63;99547.59;5001990;28;20035;-82
2021/08/19 13:42:31;;;;;;;;;;;;;;;16.93;88.36;99539.91;5002857;28;20377;-80
2021/08/19 13:44:56;;;;;;;;;;;;;;;16.76;87.68;99537.56;5000024;28;19922;-81
2021/08/19 13:47:21;;;;;;;;;;;;;;;16.85;88.50;99540.47;5001835;28;19918;-82
2021/08/19 13:49:46;;;;;;;;;;;;;;;16.89;88.39;99533.06;5001626;28;19922;-82
2021/08/19 13:52:12;;;;;;;;;;;;;;;16.55;82.79;99534.63;4996639;28;20387;-82
2021/08/19 13:54:37;;;;;;;;;;;;;;;17.08;89.26;99534.38;5001121;28;19921;-82
2021/08/19 13:57:03;;;;;;;;;;;;;;;16.87;86.25;99529.66;5001617;28;19922;-82
2021/08/19 13:59:29;;;;;;;;;;;;;;;17.08;88.48;99531.72;5001234;28;19921;-83
2021/08/19 14:01:54;;;;;;;;;;;;;;;16.72;85.63;99539.63;4999714;28;19976;-82
2021/08/19 14:04:19;;;;;;;;;;;;;;;16.82;89.22;99534.44;5001275;28;20281;-82
2021/08/19 14:06:45;;;;;;;;;;;;;;;16.49;86.01;99534.09;5001604;28;19932;-83
2021/08/19 14:09:11;;;;;;;;;;;;;;;16.86;88.19;99526.13;5000680;28;19918;-82
2021/08/19 14:11:36;;;;;;;;;;;;;;;16.49;85.15;99526.06;5001054;28;19929;-83
2021/08/19 14:14:02;;;;;;;;;;;;;;;16.86;85.89;99523.44;5001183;28;20393;-81
2021/08/19 14:16:27;;;;;;;;;;;;;;;16.88;84.65;99524.19;5001071;28;19921;-81
2021/08/19 14:18:52;;;;;;;;;;;;;;;16.88;86.64;99521.50;5001195;28;19929;-82
2021/08/19 14:21:18;;;;;;;;;;;;;;;16.52;82.61;99519.66;5001401;28;20292;-83
2021/08/19 14:23:43;;;;;;;;;;;;;;;16.96;87.84;99512.91;5000884;28;19925;-83
2021/08/19 14:26:10;;;;;;;;;;;;;;;16.82;86.20;99513.91;5001313;28;19917;-82
2021/08/19 14:28:36;;;;;;;;;;;;;;;16.37;82.35;99512.72;5001033;28;19922;-82
2021/08/19 14:31:02;;;;;;;;;;;;;;;16.39;81.52;99506.31;4999698;28;19921;-82
2021/08/19 14:33:27;;;;;;;;;;;;;;;16.85;83.84;99513.69;5001458;28;20016;-82
2021/08/19 14:35:52;;;;;;;;;;;;;;;16.86;87.52;99501.16;5000765;28;20012;-82
2021/08/19 14:38:19;;;;;;;;;;;;;;;16.77;84.09;99507.16;4996274;28;20071;-83
2021/08/19 14:40:44;;;;;;;;;;;;;;;16.89;88.23;99501.78;5000974;28;19917;-81
2021/08/19 14:43:09;;;;;;;;;;;;;;;16.61;82.83;99505.63;5002338;28;19924;-82
2021/08/19 14:45:35;;;;;;;;;;;;;;;16.84;86.13;99506.59;4999700;28;19922;-82
2021/08/19 14:48:00;;;;;;;;;;;;;;;17.13;87.02;99502.78;4997719;28;19953;-81
2021/08/19 14:50:26;;;;;;;;;;;;;;;17.08;85.70;99500.44;5002362;28;19917;-82
2021/08/19 14:52:51;;;;;;;;;;;;;;;16.97;80.75;99492.34;5000777;28;20292;-82
2021/08/19 14:55:16;;;;;;;;;;;;;;;17.11;83.65;99492.19;5000649;28;19961;-82
2021/08/19 14:57:41;;;;;;;;;;;;;;;17.10;82.53;99498.50;5001351;28;19961;-83
2021/08/19 15:00:07;;;;;;;;;;;;;;;17.24;82.80;99490.28;4999757;28;19921;-81
2021/08/19 15:02:32;;;;;;;;;;;;;;;17.21;84.71;99489.66;4998585;28;20013;-82
2021/08/19 15:04:57;;;;;;;;;;;;;;;17.17;89.43;99491.72;4999424;28;19925;-82
2021/08/19 15:07:23;;;;;;;;;;;;;;;17.19;84.62;99492.47;5000603;28;19922;-82
2021/08/19 15:09:48;;;;;;;;;;;;;;;17.03;83.15;99486.56;5004121;28;19921;-83
2021/08/19 15:12:13;;;;;;;;;;;;;;;17.02;85.87;99484.84;5004571;28;19926;-82
2021/08/19 15:14:38;;;;;;;;;;;;;;;17.04;87.42;99494.47;5004091;28;19980;-82
2021/08/19 15:17:06;;;;;;;;;;;;;;;17.31;87.10;99489.81;5003809;28;19928;-82
2021/08/19 15:19:32;;;;;;;;;;;;;;;17.03;84.67;99486.56;5004427;28;19992;-82
2021/08/19 15:21:58;;;;;;;;;;;;;;;17.05;86.55;99487.28;5005423;28;20373;-83
2021/08/19 15:24:23;;;;;;;;;;;;;;;17.25;87.45;99489.31;5002678;28;19961;-81
2021/08/19 15:26:48;;;;;;;;;;;;;;;16.93;84.59;99491.75;4998476;28;19969;-82
2021/08/19 15:29:14;;;;;;;;;;;;;;;16.74;85.68;99491.31;5004498;28;20270;-84
2021/08/19 15:31:39;;;;;;;;;;;;;;;17.01;87.72;99477.78;5002226;28;20327;-83
2021/08/19 15:34:05;;;;;;;;;;;;;;;17.18;88.20;99485.41;4998213;28;20334;-83
2021/08/19 15:36:31;;;;;;;;;;;;;;;17.17;86.42;99486.38;5015030;28;19925;-85
2021/08/19 15:38:56;;;;;;;;;;;;;;;16.80;81.97;99482.84;4999676;28;19922;-84
2021/08/19 15:41:21;;;;;;;;;;;;;;;17.18;84.86;99479.19;5002315;28;19945;-84
2021/08/19 15:43:47;;;;;;;;;;;;;;;16.93;86.65;99485.50;5000442;28;19917;-85
2021/08/19 15:46:13;;;;;;;;;;;;;;;17.26;88.21;99487.50;5001930;28;20377;-84
2021/08/19 15:48:38;;;;;;;;;;;;;;;17.02;86.50;99482.16;4998277;28;19929;-84
2021/08/19 15:51:04;;;;;;;;;;;;;;;17.15;87.67;99485.66;4999663;28;20339;-84
2021/08/19 15:53:32;;;;;;;;;;;;;;;17.12;84.91;99485.88;5002070;28;20355;-84
2021/08/19 15:55:57;;;;;;;;;;;;;;;17.21;84.29;99479.81;5000209;28;19975;-83
2021/08/19 15:58:23;;;;;;;;;;;;;;;17.06;84.49;99480.97;5000945;28;20373;-82
2021/08/19 16:00:48;;;;;;;;;;;;;;;17.16;87.05;99481.97;4995167;28;19922;-83
2021/08/19 16:03:13;;;;;;;;;;;;;;;16.99;87.20;99487.75;5000939;28;19929;-83
2021/08/19 16:05:38;;;;;;;;;;;;;;;16.97;84.73;99487.00;4999838;28;19925;-83
2021/08/19 16:08:04;;;;;;;;;;;;;;;16.87;81.05;99484.16;4996601;28;20064;-83
2021/08/19 16:10:30;;;;;;;;;;;;;;;17.00;85.92;99487.63;5000771;28;19929;-83
2021/08/19 16:12:55;;;;;;;;;;;;;;;16.83;82.43;99480.84;5000670;28;19936;-83
2021/08/19 16:15:20;;;;;;;;;;;;;;;16.85;83.32;99478.91;4999065;28;19944;-82
2021/08/19 16:17:47;;;;;;;;;;;;;;;17.16;84.76;99481.97;4998759;28;19921;-83
2021/08/19 16:20:12;;;;;;;;;;;;;;;17.11;88.19;99481.47;5001012;28;19921;-83
2021/08/19 16:22:37;;;;;;;;;;;;;;;17.15;86.46;99485.66;4999306;28;19956;-83
2021/08/19 16:25:03;;;;;;;;;;;;;;;16.91;83.24;99482.09;4998947;28;20017;-84
2021/08/19 16:27:28;;;;;;;;;;;;;;;17.15;86.08;99490.13;4999058;28;19964;-82
2021/08/19 16:29:54;;;;;;;;;;;;;;;17.24;86.64;99484.94;4999247;28;19926;-82
2021/08/19 16:32:19;;;;;;;;;;;;;;;17.14;87.21;99494.63;4997805;28;20052;-83
2021/08/19 16:34:45;;;;;;;;;;;;;;;17.08;87.16;99487.06;5009654;28;19945;-83
2021/08/19 16:37:10;;;;;;;;;;;;;;;17.15;81.35;99492.81;5000578;28;19921;-83
2021/08/19 16:39:35;;;;;;;;;;;;;;;17.25;88.48;99491.16;5001900;28;20455;-83
2021/08/19 16:42:00;;;;;;;;;;;;;;;16.98;85.04;99488.72;5002936;28;19976;-84
2021/08/19 16:44:26;;;;;;;;;;;;;;;17.23;89.13;99488.59;5002692;28;19936;-83
2021/08/19 16:46:51;;;;;;;;;;;;;;;17.03;83.77;99491.91;4999971;28;19926;-82
2021/08/19 16:49:16;;;;;;;;;;;;;;;17.20;87.45;99487.94;5001537;28;19929;-83
2021/08/19 16:51:41;;;;;;;;;;;;;;;17.35;84.14;99489.47;5001068;28;20320;-83
2021/08/19 16:54:07;;;;;;;;;;;;;;;17.07;87.77;99496.03;4999720;28;19929;-83
2021/08/19 16:56:32;;;;;;;;;;;;;;;17.21;86.67;99490.50;5001042;28;20270;-83
2021/08/19 16:58:58;;;;;;;;;;;;;;;17.03;86.38;99487.41;5000666;28;19989;-83
2021/08/19 17:01:23;;;;;;;;;;;;;;;17.22;85.14;99486.88;4999937;28;20276;-83
2021/08/19 17:03:48;;;;;;;;;;;;;;;17.36;88.79;99493.00;5000549;28;19952;-82
2021/08/19 17:06:14;;;;;;;;;;;;;;;17.29;87.96;99491.78;5001257;28;19967;-83
2021/08/19 17:08:39;;;;;;;;;;;;;;;17.40;86.85;99495.34;5000971;28;19976;-83
2021/08/19 17:11:04;;;;;;;;;;;;;;;17.24;86.71;99495.63;4999297;28;20352;-82
2021/08/19 17:13:30;;;;;;;;;;;;;;;17.11;86.12;99499.38;5002053;28;19918;-83
2021/08/19 17:15:55;;;;;;;;;;;;;;;17.18;85.25;99490.78;4997705;28;19952;-83
2021/08/19 17:18:20;;;;;;;;;;;;;;;17.15;86.56;99487.44;5001566;28;20292;-82
2021/08/19 17:20:46;;;;;;;;;;;;;;;17.10;84.84;99487.78;5000758;28;19925;-83
2021/08/19 17:23:15;;;;;;;;;;;;;;;16.85;86.71;99489.63;4996835;28;20019;-82
2021/08/19 17:25:40;;;;;;;;;;;;;;;17.16;88.41;99491.84;4998544;28;20815;-82
2021/08/19 17:28:05;;;;;;;;;;;;;;;17.12;86.74;99495.69;5007709;28;19926;-82
2021/08/19 17:30:30;;;;;;;;;;;;;;;17.11;85.90;99492.19;4996754;28;19925;-82
2021/08/19 17:32:56;;;;;;;;;;;;;;;17.18;85.50;99490.78;5015607;28;20478;-82
2021/08/19 17:35:21;;;;;;;;;;;;;;;16.74;79.13;99497.56;4994525;28;19988;-82
2021/08/19 17:37:46;;;;;;;;;;;;;;;16.96;83.82;99486.16;5000095;28;19922;-82
2021/08/19 17:40:12;;;;;;;;;;;;;;;17.36;88.54;99488.53;5000819;28;20020;-82
2021/08/19 17:42:38;;;;;;;;;;;;;;;17.27;86.36;99486.53;4993568;28;20000;-82
2021/08/19 17:45:04;;;;;;;;;;;;;;;17.16;81.18;99490.00;4997849;28;19921;-82
2021/08/19 17:47:29;;;;;;;;;;;;;;;17.27;84.90;99483.84;4998085;28;19929;-82
2021/08/19 17:49:54;;;;;;;;;;;;;;;17.20;87.16;99491.50;4997987;28;20889;-82
2021/08/19 17:52:20;;;;;;;;;;;;;;;16.91;85.03;99488.28;4999406;28;19979;-82
2021/08/19 17:54:45;;;;;;;;;;;;;;;17.03;85.39;99491.91;4997046;28;19978;-82
2021/08/19 17:57:10;;;;;;;;;;;;;;;17.02;86.70;99491.06;4998917;28;19921;-81
2021/08/19 17:59:35;;;;;;;;;;;;;;;17.19;86.33;99487.09;4998173;28;20435;-82
2021/08/19 18:02:02;;;;;;;;;;;;;;;17.29;84.51;99481.06;4999899;28;19954;-83
2021/08/19 18:04:27;;;;;;;;;;;;;;;16.98;87.84;99488.72;4995206;28;20396;-82
2021/08/19 18:06:53;;;;;;;;;;;;;;;17.14;86.92;99488.44;4998720;28;19926;-82
2021/08/19 18:09:18;;;;;;;;;;;;;;;17.12;86.66;99488.53;5000989;28;20381;-82
2021/08/19 18:11:43;;;;;;;;;;;;;;;17.12;83.71;99485.88;4998060;28;19921;-82
2021/08/19 18:14:08;;;;;;;;;;;;;;;16.96;86.74;99485.28;4998440;28;19973;-82
2021/08/19 18:16:34;;;;;;;;;;;;;;;16.98;85.98;99488.72;4997728;28;19922;-82
2021/08/19 18:19:00;;;;;;;;;;;;;;;16.93;85.30;99489.06;4997546;28;19921;-82
2021/08/19 18:21:26;;;;;;;;;;;;;;;16.85;80.33;99483.41;4999764;28;19953;-82
2021/08/19 18:23:51;;;;;;;;;;;;;;;17.01;83.42;99483.16;4999938;28;20020;-82
2021/08/19 18:26:16;;;;;;;;;;;;;;;17.00;86.56;99487.63;4998475;28;20369;-82
2021/08/19 18:28:42;;;;;;;;;;;;;;;17.00;85.84;99484.09;4998069;28;19922;-82
2021/08/19 18:31:08;;;;;;;;;;;;;;;17.05;85.09;99490.81;4997749;28;19929;-83
2021/08/19 18:33:34;;;;;;;;;;;;;;;17.09;88.31;99494.13;5006298;28;20296;-82
2021/08/19 18:35:59;;;;;;;;;;;;;;;16.86;86.76;99491.34;4998828;28;19921;-81
2021/08/19 18:38:25;;;;;;;;;;;;;;;16.75;83.63;99493.03;4999018;28;20491;-82
2021/08/19 18:40:50;;;;;;;;;;;;;;;17.04;88.40;99493.59;4996961;28;19952;-82
2021/08/19 18:43:15;;;;;;;;;;;;;;;16.83;86.90;99493.34;5001982;28;19925;-82
2021/08/19 18:45:41;;;;;;;;;;;;;;;16.49;84.99;99502.00;4999810;28;20281;-83
2021/08/19 18:48:06;;;;;;;;;;;;;;;16.64;85.11;99496.50;5000875;28;20282;-82
2021/08/19 18:50:32;;;;;;;;;;;;;;;16.38;84.85;99507.25;5001225;28;19922;-82
2021/08/19 18:52:57;;;;;;;;;;;;;;;16.73;85.91;99505.69;5004764;28;19925;-82
2021/08/19 18:55:22;;;;;;;;;;;;;;;16.45;83.94;99507.66;5002859;28;19922;-83
2021/08/19 18:57:48;;;;;;;;;;;;;;;16.64;87.47;99501.84;4995933;28;19941;-82
2021/08/19 19:00:13;;;;;;;;;;;;;;;16.50;84.17;99503.72;4999717;28;20399;-82
2021/08/19 19:02:38;;;;;;;;;;;;;;;16.47;84.80;99511.94;5002382;28;20012;-83